Time;durP1;ratioP1;P1;durP2;ratioP2;P2;SDS_P1;SDS_P2;PMS_P1;PMS_P2;Temp;Humidity;BMP_temperature;BMP_pressure;BME280_temperature;BME280_humidity;BME280_pressure;Samples;Min_cycle;Max_cycle;Signal;HPM_P1;HPM_P2
2023/03/19 00:02:18;;;;;;;3.53;1.85;;;11.20;99.90;;;;;;4949289;28;20459;-37
2023/03/19 00:04:45;;;;;;;3.67;2.20;;;11.20;99.90;;;;;;4937229;28;20048;-37
2023/03/19 00:07:10;;;;;;;3.05;1.77;;;11.20;99.90;;;;;;4952227;28;20059;-38
2023/03/19 00:09:36;;;;;;;3.65;1.90;;;11.20;99.90;;;;;;4951426;28;20055;-35
2023/03/19 00:12:02;;;;;;;4.72;1.92;;;11.20;99.90;;;;;;4953588;28;20461;-36
2023/03/19 00:14:27;;;;;;;3.00;1.73;;;11.20;99.90;;;;;;4951937;28;20062;-37
2023/03/19 00:16:53;;;;;;;2.97;1.60;;;11.20;99.90;;;;;;4952227;28;20062;-35
2023/03/19 00:19:19;;;;;;;3.53;1.70;;;11.10;99.90;;;;;;4948898;28;20062;-37
2023/03/19 00:21:45;;;;;;;2.63;1.40;;;11.10;99.90;;;;;;4943421;28;20051;-36
2023/03/19 00:24:11;;;;;;;3.88;1.40;;;11.10;99.90;;;;;;4946638;28;20059;-36
2023/03/19 00:26:37;;;;;;;3.25;1.25;;;11.10;99.90;;;;;;4951480;28;20087;-36
2023/03/19 00:29:04;;;;;;;3.78;1.25;;;11.10;99.90;;;;;;4942687;29;20177;-36
2023/03/19 00:31:30;;;;;;;2.95;1.52;;;11.00;99.90;;;;;;4950849;28;20523;-35
2023/03/19 00:33:57;;;;;;;1.90;1.05;;;11.00;99.90;;;;;;4952243;28;20057;-36
2023/03/19 00:36:24;;;;;;;2.58;1.20;;;11.00;99.90;;;;;;4942981;28;20205;-44
2023/03/19 00:38:50;;;;;;;2.55;1.30;;;11.00;99.90;;;;;;4953330;28;20063;-46
2023/03/19 00:41:17;;;;;;;2.15;1.17;;;11.00;99.90;;;;;;4952715;28;20594;-46
2023/03/19 00:43:43;;;;;;;2.20;1.20;;;11.00;99.90;;;;;;4951289;28;20539;-47
2023/03/19 00:46:09;;;;;;;2.40;1.35;;;11.00;99.90;;;;;;4943344;28;20146;-46
2023/03/19 00:48:34;;;;;;;2.53;1.20;;;11.00;99.90;;;;;;4949968;28;20055;-47
2023/03/19 00:51:05;;;;;;;4.90;1.63;;;11.00;99.90;;;;;;4945639;28;20047;-48
2023/03/19 00:53:32;;;;;;;2.33;1.27;;;11.00;99.90;;;;;;4949764;28;20206;-49
2023/03/19 00:55:57;;;;;;;3.85;1.40;;;11.10;99.90;;;;;;4948898;28;20066;-48
2023/03/19 00:58:23;;;;;;;3.08;1.38;;;11.00;99.90;;;;;;4951610;28;20047;-49
2023/03/19 01:00:52;;;;;;;2.08;1.20;;;11.00;99.90;;;;;;4950767;28;20055;-49
2023/03/19 01:03:18;;;;;;;4.22;2.03;;;11.00;99.90;;;;;;4944077;28;20079;-48
2023/03/19 01:05:48;;;;;;;4.22;1.50;;;11.00;99.90;;;;;;4951392;28;20150;-49
2023/03/19 01:08:14;;;;;;;2.70;1.40;;;10.90;99.90;;;;;;4944354;28;20039;-48
2023/03/19 01:10:40;;;;;;;3.17;1.52;;;10.90;99.90;;;;;;4945151;29;20501;-50
2023/03/19 01:13:05;;;;;;;2.70;1.30;;;10.90;99.90;;;;;;4951315;28;20129;-48
2023/03/19 01:15:38;;;;;;;3.60;1.13;;;10.80;99.90;;;;;;4950322;28;20078;-37
2023/03/19 01:18:04;;;;;;;2.83;1.02;;;10.80;99.90;;;;;;4939302;28;20066;-37
2023/03/19 01:20:30;;;;;;;2.70;1.30;;;10.80;99.90;;;;;;4950756;28;20118;-37
2023/03/19 01:22:56;;;;;;;2.75;1.30;;;10.70;99.90;;;;;;4951188;28;20055;-37
2023/03/19 01:25:22;;;;;;;3.35;1.45;;;10.70;99.90;;;;;;4946789;28;20055;-43
2023/03/19 01:27:47;;;;;;;3.60;1.33;;;10.70;99.90;;;;;;4947939;28;20054;-37
2023/03/19 01:30:14;;;;;;;3.78;1.30;;;10.70;99.90;;;;;;4951019;28;20043;-37
2023/03/19 01:32:39;;;;;;;3.00;1.27;;;10.60;99.90;;;;;;4950409;28;20055;-37
2023/03/19 01:35:06;;;;;;;4.63;1.30;;;10.60;99.90;;;;;;4950174;28;20109;-37
2023/03/19 01:37:32;;;;;;;2.30;1.00;;;10.60;99.90;;;;;;4951076;28;20053;-37
2023/03/19 01:39:58;;;;;;;2.10;1.10;;;10.60;99.90;;;;;;4946726;28;20081;-37
2023/03/19 01:42:24;;;;;;;1.98;1.00;;;10.50;99.90;;;;;;4951703;28;20137;-38
2023/03/19 01:44:50;;;;;;;3.15;1.35;;;10.50;99.90;;;;;;4944425;28;20056;-37
2023/03/19 01:47:37;;;;;;;3.08;1.00;;;10.50;99.90;;;;;;4945814;28;20054;-37
2023/03/19 01:50:04;;;;;;;2.00;1.10;;;10.50;99.90;;;;;;4946145;28;20071;-37
2023/03/19 01:52:33;;;;;;;2.70;1.38;;;10.40;99.90;;;;;;4966758;28;20110;-37
2023/03/19 01:55:02;;;;;;;3.13;1.20;;;10.40;99.90;;;;;;4946795;28;20123;-37
2023/03/19 01:57:29;;;;;;;4.65;1.52;;;10.40;99.90;;;;;;4943526;28;20520;-37
2023/03/19 01:59:58;;;;;;;2.67;1.25;;;10.40;99.90;;;;;;4945906;28;20143;-37
2023/03/19 02:02:32;;;;;;;2.22;1.20;;;10.40;99.90;;;;;;4947136;28;20047;-44
2023/03/19 02:05:01;;;;;;;2.70;1.35;;;10.40;99.90;;;;;;4944249;28;20051;-46
2023/03/19 02:07:30;;;;;;;2.00;1.10;;;10.40;99.90;;;;;;4949951;28;20102;-47
2023/03/19 02:09:57;;;;;;;2.72;1.40;;;10.30;99.90;;;;;;4950272;28;20560;-45
2023/03/19 02:12:22;;;;;;;2.70;1.20;;;10.30;99.90;;;;;;4948905;28;20382;-43
2023/03/19 02:14:48;;;;;;;3.00;1.40;;;10.30;99.90;;;;;;4949250;28;20153;-45
2023/03/19 02:17:14;;;;;;;2.90;1.27;;;10.30;99.90;;;;;;4946626;28;20589;-44
2023/03/19 02:20:15;;;;;;;4.25;1.27;;;10.30;99.90;;;;;;4945064;28;20043;-45
2023/03/19 02:23:10;;;;;;;2.25;1.23;;;10.30;99.90;;;;;;4869570;29;20049;-46
2023/03/19 02:25:43;;;;;;;3.00;1.38;;;10.30;99.90;;;;;;4944378;28;20109;-49
2023/03/19 02:28:09;;;;;;;;;;;10.30;99.90;;;;;;4945288;28;20046;-36
2023/03/19 02:30:36;;;;;;;2.25;1.02;;;10.30;99.90;;;;;;4948415;28;19929;-36
2023/03/19 02:33:02;;;;;;;3.22;1.00;;;10.30;99.90;;;;;;4948328;28;20047;-35
2023/03/19 02:35:31;;;;;;;2.58;1.30;;;10.30;99.90;;;;;;4943162;28;20039;-37
2023/03/19 02:37:57;;;;;;;3.97;1.23;;;10.30;99.90;;;;;;4947181;28;20062;-37
2023/03/19 02:40:30;;;;;;;4.05;1.48;;;10.20;99.90;;;;;;4945927;28;20505;-38
2023/03/19 02:42:56;;;;;;;3.15;1.23;;;10.20;99.90;;;;;;4943382;28;20513;-37
2023/03/19 02:45:26;;;;;;;2.35;1.00;;;10.20;99.90;;;;;;4948746;28;20047;-38
2023/03/19 02:47:52;;;;;;;2.90;1.25;;;10.10;99.90;;;;;;4945577;28;20062;-37
2023/03/19 02:50:18;;;;;;;3.47;1.48;;;10.10;99.90;;;;;;4945216;28;20059;-37
2023/03/19 02:52:43;;;;;;;2.47;1.25;;;10.10;99.90;;;;;;4942316;28;20052;-37
2023/03/19 02:55:09;;;;;;;2.13;1.17;;;10.00;99.90;;;;;;4947786;28;20062;-37
2023/03/19 02:57:35;;;;;;;3.75;1.50;;;10.00;99.90;;;;;;4946047;28;20047;-37
2023/03/19 03:00:00;;;;;;;3.08;1.30;;;10.00;99.90;;;;;;4942043;28;20052;-37
2023/03/19 03:02:26;;;;;;;3.63;1.30;;;9.90;99.90;;;;;;4944343;28;20541;-37
2023/03/19 03:04:52;;;;;;;2.95;1.60;;;9.90;99.90;;;;;;4944520;28;20059;-37
2023/03/19 03:07:17;;;;;;;3.25;1.30;;;9.90;99.90;;;;;;4949576;28;20095;-37
2023/03/19 03:09:43;;;;;;;4.88;1.67;;;9.90;99.90;;;;;;4942220;28;20061;-37
2023/03/19 03:12:09;;;;;;;2.78;1.33;;;9.90;99.90;;;;;;4946525;28;20051;-36
2023/03/19 03:14:34;;;;;;;3.88;1.50;;;9.90;99.90;;;;;;4949146;28;20047;-37
2023/03/19 03:17:00;;;;;;;2.30;1.13;;;9.90;99.90;;;;;;4944453;28;20058;-37
2023/03/19 03:19:26;;;;;;;2.50;1.40;;;9.90;99.90;;;;;;4947488;28;20079;-36
2023/03/19 03:21:51;;;;;;;4.00;1.58;;;9.90;99.90;;;;;;4946781;28;20078;-36
2023/03/19 03:24:17;;;;;;;3.22;1.30;;;9.90;99.90;;;;;;4947476;28;20522;-36
2023/03/19 03:26:43;;;;;;;3.22;1.30;;;9.90;99.90;;;;;;4942252;28;20154;-36
2023/03/19 03:29:09;;;;;;;4.05;1.67;;;9.90;99.90;;;;;;4946680;28;20516;-36
2023/03/19 03:31:35;;;;;;;4.57;1.45;;;9.90;99.90;;;;;;4948004;28;20054;-38
2023/03/19 03:34:01;;;;;;;3.83;1.45;;;9.90;99.90;;;;;;4942365;28;20056;-36
2023/03/19 03:36:27;;;;;;;4.68;1.60;;;9.90;99.90;;;;;;4948866;28;20122;-42
2023/03/19 03:38:53;;;;;;;4.28;1.40;;;9.90;99.90;;;;;;4948368;29;20047;-45
2023/03/19 03:41:19;;;;;;;2.90;1.60;;;9.90;99.90;;;;;;4943941;28;20054;-47
2023/03/19 03:43:45;;;;;;;5.95;1.90;;;9.90;99.90;;;;;;4947367;28;20126;-43
2023/03/19 03:46:12;;;;;;;4.03;1.80;;;9.90;99.90;;;;;;4945488;28;20059;-44
2023/03/19 03:48:38;;;;;;;4.28;2.05;;;9.90;99.90;;;;;;4947316;28;20047;-43
2023/03/19 03:51:03;;;;;;;5.25;1.80;;;9.90;99.90;;;;;;4945243;28;20071;-45
2023/03/19 03:53:29;;;;;;;3.72;1.70;;;9.80;99.90;;;;;;4946040;28;20062;-44
2023/03/19 03:55:55;;;;;;;2.53;1.65;;;9.80;99.90;;;;;;4941990;28;20055;-43
2023/03/19 03:58:22;;;;;;;2.85;1.60;;;9.80;99.90;;;;;;4944331;28;20055;-45
2023/03/19 04:00:48;;;;;;;2.35;1.45;;;9.70;99.90;;;;;;4945062;28;20047;-43
2023/03/19 04:03:14;;;;;;;3.67;1.73;;;9.70;99.90;;;;;;4947129;28;20515;-43
2023/03/19 04:05:39;;;;;;;5.15;1.90;;;9.60;99.90;;;;;;4946706;28;20413;-45
2023/03/19 04:08:07;;;;;;;2.85;1.55;;;9.60;99.90;;;;;;4948782;28;20512;-47
2023/03/19 04:10:34;;;;;;;3.10;1.60;;;9.60;99.90;;;;;;4947406;28;20043;-43
2023/03/19 04:13:00;;;;;;;4.22;2.30;;;9.60;99.90;;;;;;4946011;28;20062;-46
2023/03/19 04:15:26;;;;;;;3.33;1.70;;;9.50;99.90;;;;;;4946598;28;20054;-45
2023/03/19 04:17:51;;;;;;;3.83;2.15;;;9.50;99.90;;;;;;4947264;28;20285;-47
2023/03/19 04:20:17;;;;;;;4.30;1.88;;;9.40;99.90;;;;;;4945191;28;20048;-42
2023/03/19 04:22:44;;;;;;;2.47;1.42;;;9.40;99.90;;;;;;4944758;28;20048;-45
2023/03/19 04:25:10;;;;;;;3.72;2.10;;;9.40;99.90;;;;;;4948842;28;20517;-47
2023/03/19 04:27:35;;;;;;;3.65;1.75;;;9.40;99.90;;;;;;4946815;28;20047;-45
2023/03/19 04:30:02;;;;;;;4.78;2.63;;;9.40;99.90;;;;;;4948605;28;20416;-40
2023/03/19 04:32:28;;;;;;;3.75;2.05;;;9.50;99.90;;;;;;4948575;28;20504;-45
2023/03/19 04:34:54;;;;;;;5.00;2.08;;;9.40;99.90;;;;;;4945305;28;20052;-48
2023/03/19 04:37:20;;;;;;;3.33;1.75;;;9.40;99.90;;;;;;4946352;28;20078;-46
2023/03/19 04:39:45;;;;;;;3.83;1.60;;;9.30;99.90;;;;;;4946566;28;20142;-43
2023/03/19 04:42:11;;;;;;;4.63;1.70;;;9.30;99.90;;;;;;4948836;28;20509;-43
2023/03/19 04:44:37;;;;;;;4.60;1.98;;;9.30;99.90;;;;;;4946304;28;20090;-46
2023/03/19 04:47:04;;;;;;;3.60;1.30;;;9.20;99.90;;;;;;4947793;28;20057;-44
2023/03/19 04:49:33;;;;;;;3.40;1.55;;;9.20;99.90;;;;;;4945325;28;20106;-44
2023/03/19 04:51:59;;;;;;;2.78;1.73;;;9.20;99.90;;;;;;4946747;28;20102;-45
2023/03/19 04:54:25;;;;;;;2.30;1.20;;;9.10;99.90;;;;;;4951656;28;20109;-43
2023/03/19 04:56:52;;;;;;;3.20;1.58;;;9.10;99.90;;;;;;4951903;28;20501;-47
2023/03/19 04:59:17;;;;;;;2.95;1.30;;;9.00;99.90;;;;;;4949948;28;20051;-43
2023/03/19 05:01:43;;;;;;;3.22;1.95;;;9.00;99.90;;;;;;4949451;28;20485;-43
2023/03/19 05:04:09;;;;;;;2.45;1.42;;;8.90;99.90;;;;;;4948020;28;20051;-43
2023/03/19 05:06:36;;;;;;;4.05;1.60;;;8.90;99.90;;;;;;4949043;28;20063;-44
2023/03/19 05:09:05;;;;;;;3.30;1.80;;;8.90;99.90;;;;;;4945616;28;20166;-45
2023/03/19 05:11:31;;;;;;;4.43;1.77;;;8.80;99.90;;;;;;4950027;28;20533;-46
2023/03/19 05:13:56;;;;;;;3.38;1.80;;;8.80;99.90;;;;;;4950721;28;20047;-46
2023/03/19 05:16:22;;;;;;;3.25;1.88;;;8.80;99.90;;;;;;4947071;28;20444;-42
2023/03/19 05:18:48;;;;;;;3.20;2.08;;;8.70;99.90;;;;;;4950506;28;20044;-46
2023/03/19 05:21:14;;;;;;;4.88;1.92;;;8.70;99.90;;;;;;4945316;28;20134;-42
2023/03/19 05:23:40;;;;;;;4.60;2.05;;;8.70;99.90;;;;;;4945504;28;20573;-47
2023/03/19 05:26:07;;;;;;;3.85;1.80;;;8.70;99.90;;;;;;4941499;28;20046;-46
2023/03/19 05:28:33;;;;;;;3.10;1.83;;;8.70;99.90;;;;;;4966669;28;20159;-48
2023/03/19 05:30:59;;;;;;;3.10;1.80;;;8.70;99.90;;;;;;4948969;28;21698;-47
2023/03/19 05:33:25;;;;;;;4.20;2.33;;;8.60;99.90;;;;;;4950175;28;20474;-49
2023/03/19 05:35:51;;;;;;;4.28;1.88;;;8.60;99.90;;;;;;4950445;28;20058;-50
2023/03/19 05:38:18;;;;;;;4.93;2.40;;;8.60;99.90;;;;;;4944566;28;20074;-48
2023/03/19 05:40:43;;;;;;;4.68;1.83;;;8.60;99.90;;;;;;4948077;28;20043;-49
2023/03/19 05:43:09;;;;;;;3.50;2.00;;;8.60;99.90;;;;;;4946424;28;20067;-48
2023/03/19 05:45:36;;;;;;;9.27;2.08;;;8.50;99.90;;;;;;4950400;28;20078;-47
2023/03/19 05:48:02;;;;;;;3.72;2.05;;;8.50;99.90;;;;;;4946853;28;20142;-47
2023/03/19 05:50:28;;;;;;;5.97;2.50;;;8.50;99.90;;;;;;4949832;28;20054;-47
2023/03/19 05:52:54;;;;;;;4.53;2.25;;;8.50;99.90;;;;;;4938006;28;20418;-48
2023/03/19 05:55:20;;;;;;;4.40;2.50;;;8.40;99.90;;;;;;4951186;28;20062;-49
2023/03/19 05:57:45;;;;;;;4.55;2.55;;;8.40;99.90;;;;;;4947244;28;20130;-55
2023/03/19 06:00:12;;;;;;;4.90;2.40;;;8.40;99.90;;;;;;4962321;28;20134;-47
2023/03/19 06:02:38;;;;;;;5.78;2.80;;;8.50;99.90;;;;;;4947555;28;20055;-44
2023/03/19 06:05:05;;;;;;;5.38;2.85;;;8.40;99.90;;;;;;4948075;28;20114;-45
2023/03/19 06:07:31;;;;;;;4.35;2.40;;;8.40;99.90;;;;;;4950953;28;20509;-48
2023/03/19 06:09:56;;;;;;;4.28;2.10;;;8.40;99.90;;;;;;4942952;28;20113;-47
2023/03/19 06:12:23;;;;;;;5.10;2.90;;;8.40;99.90;;;;;;4945461;28;20163;-49
2023/03/19 06:14:49;;;;;;;4.00;2.25;;;8.40;99.90;;;;;;4949006;28;20090;-46
2023/03/19 06:17:15;;;;;;;4.70;2.72;;;8.40;99.90;;;;;;4947554;28;20130;-48
2023/03/19 06:19:40;;;;;;;4.32;2.72;;;8.40;99.90;;;;;;4949568;28;20512;-38
2023/03/19 06:22:06;;;;;;;3.90;2.40;;;8.40;99.90;;;;;;4942531;28;20055;-37
2023/03/19 06:24:32;;;;;;;4.40;2.50;;;8.40;99.90;;;;;;4939200;28;20060;-37
2023/03/19 06:26:58;;;;;;;5.47;3.15;;;8.40;99.90;;;;;;4946804;28;20142;-37
2023/03/19 06:29:24;;;;;;;7.70;3.05;;;8.40;99.90;;;;;;4949039;28;20139;-39
2023/03/19 06:31:51;;;;;;;5.55;3.17;;;8.40;99.90;;;;;;4945444;28;20051;-41
2023/03/19 06:34:17;;;;;;;6.57;3.70;;;8.50;99.90;;;;;;4946544;28;20134;-37
2023/03/19 06:36:43;;;;;;;6.18;3.28;;;8.40;99.90;;;;;;4946815;28;20142;-38
2023/03/19 06:39:09;;;;;;;5.18;3.10;;;8.50;99.90;;;;;;4949070;28;20058;-39
2023/03/19 06:41:35;;;;;;;6.07;3.65;;;8.50;99.90;;;;;;4943672;28;20541;-38
2023/03/19 06:44:02;;;;;;;6.10;3.25;;;8.60;99.90;;;;;;4946112;28;20055;-37
2023/03/19 06:46:27;;;;;;;6.63;3.38;;;8.60;99.90;;;;;;4946314;28;20563;-46
2023/03/19 06:48:53;;;;;;;5.10;2.60;;;8.60;99.90;;;;;;4943432;28;20054;-45
2023/03/19 06:51:19;;;;;;;6.50;3.42;;;8.60;99.90;;;;;;4941546;28;20059;-44
2023/03/19 06:53:45;;;;;;;6.75;3.60;;;8.70;99.90;;;;;;4941873;28;20125;-46
2023/03/19 06:56:11;;;;;;;6.63;3.22;;;8.70;99.90;;;;;;4945701;28;20494;-44
2023/03/19 06:58:37;;;;;;;6.15;3.30;;;8.80;99.90;;;;;;4948256;28;20049;-46
2023/03/19 07:01:03;;;;;;;6.53;3.85;;;8.80;99.90;;;;;;4940349;28;20059;-44
2023/03/19 07:03:29;;;;;;;7.63;3.53;;;8.90;99.90;;;;;;4949077;28;20086;-46
2023/03/19 07:05:55;;;;;;;6.13;3.13;;;8.90;99.90;;;;;;4945129;28;20043;-49
2023/03/19 07:08:21;;;;;;;5.57;3.45;;;8.90;99.90;;;;;;4945996;28;20058;-43
2023/03/19 07:10:46;;;;;;;6.13;3.50;;;8.90;99.90;;;;;;4944198;28;20051;-37
2023/03/19 07:13:12;;;;;;;5.78;3.72;;;9.00;99.90;;;;;;4945905;28;20047;-38
2023/03/19 07:15:38;;;;;;;6.05;3.45;;;9.00;99.90;;;;;;4939532;28;20191;-37
2023/03/19 07:18:04;;;;;;;5.65;3.63;;;9.00;99.90;;;;;;4943801;28;20066;-37
2023/03/19 07:20:30;;;;;;;6.13;3.25;;;9.10;99.90;;;;;;4949241;28;20125;-38
2023/03/19 07:22:55;;;;;;;7.50;4.15;;;9.10;99.90;;;;;;4947913;28;20047;-38
2023/03/19 07:25:21;;;;;;;7.07;4.10;;;9.20;99.90;;;;;;4942102;29;20092;-38
2023/03/19 07:27:47;;;;;;;6.45;4.22;;;9.40;99.90;;;;;;4947467;28;20516;-37
2023/03/19 07:30:13;;;;;;;8.18;4.03;;;9.50;99.90;;;;;;4944096;28;20047;-37
2023/03/19 07:32:39;;;;;;;10.13;4.85;;;9.70;99.90;;;;;;4944703;28;20062;-37
2023/03/19 07:35:06;;;;;;;9.65;5.25;;;9.80;99.90;;;;;;4946494;28;20528;-37
2023/03/19 07:37:32;;;;;;;7.97;4.80;;;9.90;99.90;;;;;;4949077;28;20111;-38
2023/03/19 07:39:58;;;;;;;8.07;5.05;;;9.90;99.90;;;;;;4942935;28;20599;-37
2023/03/19 07:42:23;;;;;;;8.18;4.78;;;9.90;99.90;;;;;;4947639;28;20055;-37
2023/03/19 07:44:49;;;;;;;9.27;4.90;;;10.00;99.90;;;;;;4947949;28;20425;-37
2023/03/19 07:47:15;;;;;;;8.73;5.38;;;10.00;99.90;;;;;;4945850;28;20143;-37
2023/03/19 07:49:40;;;;;;;10.55;5.57;;;10.10;99.90;;;;;;4947200;28;20185;-46
2023/03/19 07:52:06;;;;;;;10.45;5.70;;;10.10;99.90;;;;;;4942024;28;20051;-48
2023/03/19 07:54:32;;;;;;;9.27;5.95;;;10.10;99.90;;;;;;4944788;28;20055;-45
2023/03/19 07:56:58;;;;;;;11.48;5.88;;;10.20;99.90;;;;;;4941420;28;20597;-47
2023/03/19 07:59:23;;;;;;;10.45;6.45;;;10.20;99.90;;;;;;4943572;28;20159;-45
2023/03/19 08:01:49;;;;;;;10.30;6.38;;;10.20;99.90;;;;;;4940369;28;20529;-49
2023/03/19 08:04:15;;;;;;;11.68;6.82;;;10.20;99.90;;;;;;4944343;28;20067;-46
2023/03/19 08:06:41;;;;;;;10.63;6.88;;;10.20;99.90;;;;;;4940575;29;20488;-48
2023/03/19 08:09:06;;;;;;;11.10;6.40;;;10.20;99.90;;;;;;4941262;28;20502;-46
2023/03/19 08:11:32;;;;;;;11.25;7.63;;;10.10;99.90;;;;;;4940423;28;20066;-47
2023/03/19 08:13:58;;;;;;;11.48;6.85;;;10.10;99.90;;;;;;4945210;28;20528;-45
2023/03/19 08:16:24;;;;;;;10.63;6.55;;;10.20;99.90;;;;;;4941762;28;20055;-45
2023/03/19 08:18:50;;;;;;;10.68;6.43;;;10.20;99.90;;;;;;4946019;28;20568;-44
2023/03/19 08:21:16;;;;;;;10.45;6.53;;;10.20;99.90;;;;;;4940545;28;20066;-45
2023/03/19 08:23:42;;;;;;;13.00;7.18;;;10.20;99.90;;;;;;4943745;28;20697;-42
2023/03/19 08:26:07;;;;;;;14.88;7.85;;;10.20;99.90;;;;;;4947112;28;20051;-42
2023/03/19 08:28:34;;;;;;;13.02;7.78;;;10.30;99.90;;;;;;4951675;28;20063;-44
2023/03/19 08:31:26;;;;;;;12.70;7.40;;;10.40;99.90;;;;;;4949419;28;20046;-44
2023/03/19 08:33:52;;;;;;;13.07;6.70;;;10.40;99.90;;;;;;4945569;28;20564;-44
2023/03/19 08:36:17;;;;;;;11.95;7.13;;;10.40;99.90;;;;;;4942379;28;20099;-42
2023/03/19 08:38:43;;;;;;;13.25;7.85;;;10.50;99.90;;;;;;4948050;28;20130;-46
2023/03/19 08:41:09;;;;;;;12.13;7.35;;;10.50;99.90;;;;;;4949665;28;20199;-45
2023/03/19 08:43:36;;;;;;;13.57;7.40;;;10.50;99.90;;;;;;4951276;28;20059;-44
2023/03/19 08:46:03;;;;;;;13.73;7.30;;;10.60;99.90;;;;;;4948731;28;20062;-47
2023/03/19 08:48:29;;;;;;;10.63;6.82;;;10.50;99.90;;;;;;4947476;28;20130;-47
2023/03/19 08:50:57;;;;;;;14.75;7.50;;;10.60;99.90;;;;;;4951994;28;20050;-45
2023/03/19 08:53:24;;;;;;;14.00;7.60;;;10.50;99.90;;;;;;4946218;28;20504;-50
2023/03/19 08:55:54;;;;;;;11.00;6.95;;;10.50;99.90;;;;;;4945560;28;20135;-42
2023/03/19 08:58:20;;;;;;;12.50;6.97;;;10.60;99.90;;;;;;4948616;28;20142;-44
2023/03/19 09:00:46;;;;;;;11.57;7.38;;;10.60;99.90;;;;;;4945172;28;20191;-43
2023/03/19 09:03:12;;;;;;;12.40;7.35;;;10.60;99.90;;;;;;4949111;28;20461;-45
2023/03/19 09:05:38;;;;;;;13.38;7.78;;;10.60;99.90;;;;;;4949202;28;20051;-43
2023/03/19 09:08:03;;;;;;;11.00;6.97;;;10.60;99.90;;;;;;4949782;28;20480;-44
2023/03/19 09:10:29;;;;;;;11.80;6.57;;;10.70;99.90;;;;;;4950451;28;20133;-43
2023/03/19 09:12:55;;;;;;;11.85;6.97;;;10.70;99.90;;;;;;4943973;28;20047;-48
2023/03/19 09:15:20;;;;;;;11.68;7.15;;;10.70;99.90;;;;;;4949847;28;20521;-43
2023/03/19 09:17:46;;;;;;;11.25;7.13;;;10.70;99.90;;;;;;4946214;28;20051;-52
2023/03/19 09:20:12;;;;;;;10.73;7.10;;;10.60;99.90;;;;;;4948189;28;20047;-42
2023/03/19 09:22:37;;;;;;;11.20;6.82;;;10.60;99.90;;;;;;4951424;28;20051;-44
2023/03/19 09:25:03;;;;;;;10.10;6.78;;;10.60;99.90;;;;;;4945330;28;20059;-40
2023/03/19 09:27:29;;;;;;;11.45;6.80;;;10.60;99.90;;;;;;4950260;28;20055;-45
2023/03/19 09:29:54;;;;;;;11.15;6.80;;;10.50;99.90;;;;;;4944028;28;20506;-37
2023/03/19 09:32:20;;;;;;;13.70;7.18;;;10.50;99.90;;;;;;4946064;28;20089;-47
2023/03/19 09:34:46;;;;;;;12.40;6.63;;;10.50;99.90;;;;;;4948468;28;20047;-36
2023/03/19 09:37:12;;;;;;;12.80;6.55;;;10.50;99.90;;;;;;4950416;28;20134;-37
2023/03/19 09:39:38;;;;;;;14.52;7.70;;;10.40;99.90;;;;;;4947408;28;20047;-37
2023/03/19 09:42:26;;;;;;;13.23;7.28;;;10.40;99.90;;;;;;4948895;28;20497;-37
2023/03/19 09:44:52;;;;;;;14.70;7.63;;;10.40;99.90;;;;;;4945389;28;20146;-36
2023/03/19 09:47:31;;;;;;;12.63;7.45;;;10.50;99.90;;;;;;4950456;28;20047;-37
2023/03/19 09:50:04;;;;;;;11.77;6.95;;;10.50;99.90;;;;;;4945194;28;20060;-37
2023/03/19 09:52:33;;;;;;;11.68;7.57;;;10.40;99.90;;;;;;4947287;28;20056;-37
2023/03/19 09:55:10;;;;;;;11.75;7.65;;;10.50;99.90;;;;;;4950183;28;20410;-44
2023/03/19 09:57:37;;;;;;;10.45;6.75;;;10.50;99.90;;;;;;4947771;28;20047;-45
2023/03/19 10:00:23;;;;;;;14.15;7.30;;;10.50;99.90;;;;;;4944730;28;20055;-41
2023/03/19 10:03:30;;;;;;;11.43;7.28;;;10.50;99.90;;;;;;4941052;28;20059;-42
2023/03/19 10:06:10;;;;;;;12.52;7.65;;;10.60;99.90;;;;;;4897037;29;20074;-44
2023/03/19 10:09:02;;;;;;;12.88;8.05;;;10.60;99.90;;;;;;4947010;28;20067;-43
2023/03/19 10:11:53;;;;;;;10.32;6.88;;;10.60;99.90;;;;;;4943793;28;20102;-51
2023/03/19 10:14:33;;;;;;;9.45;6.60;;;10.70;99.90;;;;;;4947222;28;20525;-41
2023/03/19 10:17:03;;;;;;;12.18;7.00;;;10.70;99.90;;;;;;4943918;28;20138;-43
2023/03/19 10:19:47;;;;;;;13.07;7.72;;;10.70;99.90;;;;;;4947814;28;20054;-45
2023/03/19 10:22:37;;;;;;;12.93;7.43;;;10.70;99.90;;;;;;4942596;28;20040;-43
2023/03/19 10:25:04;;;;;;;10.57;6.57;;;10.60;99.90;;;;;;4945842;28;20066;-47
2023/03/19 10:27:30;;;;;;;13.88;7.65;;;10.60;99.90;;;;;;4946860;28;20106;-47
2023/03/19 10:29:56;;;;;;;10.75;6.90;;;10.70;99.90;;;;;;4949417;28;20417;-36
2023/03/19 10:32:47;;;;;;;11.38;7.25;;;10.80;99.90;;;;;;4947163;29;20057;-37
2023/03/19 10:35:21;;;;;;;9.35;6.05;;;10.80;99.90;;;;;;4940108;28;20052;-36
2023/03/19 10:37:49;;;;;;;13.50;7.25;;;10.90;99.90;;;;;;4946774;28;20501;-35
2023/03/19 10:40:36;;;;;;;13.50;7.90;;;10.90;99.90;;;;;;4946362;28;20422;-35
2023/03/19 10:43:15;;;;;;;12.00;7.65;;;11.00;99.90;;;;;;4945462;28;20078;-38
2023/03/19 10:45:41;;;;;;;11.23;7.03;;;11.00;99.90;;;;;;4942405;28;20047;-38
2023/03/19 10:48:14;;;;;;;10.25;6.90;;;11.20;99.90;;;;;;4948724;28;20055;-38
2023/03/19 10:50:52;;;;;;;12.40;6.93;;;11.30;99.90;;;;;;4949357;28;20513;-37
2023/03/19 10:53:35;;;;;;;13.25;6.88;;;11.40;99.90;;;;;;4948721;28;20079;-37
2023/03/19 10:56:03;;;;;;;10.40;7.13;;;11.50;99.90;;;;;;4943975;28;20047;-38
2023/03/19 10:58:31;;;;;;;11.73;7.90;;;11.60;99.90;;;;;;4962373;28;20062;-39
2023/03/19 11:01:17;;;;;;;11.95;7.22;;;11.70;99.90;;;;;;4949023;28;20417;-38
2023/03/19 11:03:51;;;;;;;11.10;6.93;;;11.70;99.90;;;;;;4942554;28;20147;-38
2023/03/19 11:06:26;;;;;;;10.27;6.82;;;11.80;99.90;;;;;;4944884;28;20047;-38
2023/03/19 11:08:56;;;;;;;13.90;6.55;;;11.90;99.90;;;;;;4948686;28;20134;-49
2023/03/19 11:11:23;;;;;;;10.90;6.72;;;12.00;99.90;;;;;;4947597;28;20059;-46
2023/03/19 11:13:49;;;;;;;11.38;6.90;;;12.10;99.90;;;;;;4948686;28;20059;-46
2023/03/19 11:16:15;;;;;;;10.80;7.50;;;12.10;99.90;;;;;;4949820;28;20513;-47
2023/03/19 11:18:41;;;;;;;11.75;7.05;;;12.30;99.90;;;;;;4946479;28;20464;-45
2023/03/19 11:21:29;;;;;;;10.27;6.32;;;12.40;99.90;;;;;;4940725;28;20054;-47
2023/03/19 11:24:02;;;;;;;11.80;6.18;;;12.60;99.90;;;;;;4946353;28;20067;-43
2023/03/19 11:26:29;;;;;;;10.57;6.35;;;12.70;99.90;;;;;;4941278;28;20047;-44
2023/03/19 11:29:03;;;;;;;11.73;7.05;;;12.70;99.90;;;;;;4940789;28;20497;-43
2023/03/19 11:31:55;;;;;;;10.18;6.00;;;12.80;99.90;;;;;;4946319;28;20155;-44
2023/03/19 11:34:24;;;;;;;10.20;6.05;;;12.90;99.90;;;;;;4943790;29;20426;-45
2023/03/19 11:37:06;;;;;;;11.60;6.43;;;13.00;99.90;;;;;;4949246;28;20066;-43
2023/03/19 11:40:10;;;;;;;12.90;7.28;;;13.10;99.90;;;;;;4948189;28;20109;-48
2023/03/19 11:42:56;;;;;;;11.68;7.32;;;13.20;99.90;;;;;;4947589;28;20047;-46
2023/03/19 11:45:25;;;;;;;10.90;7.03;;;13.50;99.90;;;;;;4944747;28;20059;-49
2023/03/19 11:47:53;;;;;;;10.45;6.47;;;13.60;99.90;;;;;;4946676;28;20056;-49
2023/03/19 11:50:29;;;;;;;10.55;7.28;;;13.70;99.90;;;;;;4946385;28;20062;-44
2023/03/19 11:53:20;;;;;;;12.60;7.35;;;13.90;99.90;;;;;;4942337;28;20145;-45
2023/03/19 11:56:00;;;;;;;11.43;7.10;;;14.10;99.90;;;;;;4949147;28;20058;-42
2023/03/19 11:58:42;;;;;;;11.75;6.93;;;14.50;99.90;;;;;;4944993;28;20055;-44
2023/03/19 12:01:30;;;;;;;11.95;7.22;;;14.60;99.90;;;;;;4941733;28;20390;-45
2023/03/19 12:04:02;;;;;;;11.45;6.93;;;14.50;99.90;;;;;;4950029;28;20059;-44
2023/03/19 12:06:47;;;;;;;12.10;6.70;;;14.30;99.90;;;;;;4942510;29;20130;-41
2023/03/19 12:09:36;;;;;;;11.85;7.20;;;14.30;99.90;;;;;;4936502;28;20548;-42
2023/03/19 12:12:09;;;;;;;15.00;7.25;;;14.30;99.90;;;;;;4944389;28;20059;-44
2023/03/19 12:14:46;;;;;;;12.35;7.35;;;14.20;99.90;;;;;;4950099;28;20137;-43
2023/03/19 12:17:35;;;;;;;11.25;7.45;;;14.10;99.90;;;;;;4948056;28;20059;-44
2023/03/19 12:20:16;;;;;;;12.50;7.82;;;14.20;99.90;;;;;;4916165;28;20059;-47
2023/03/19 12:23:05;;;;;;;12.95;7.68;;;14.20;99.90;;;;;;4952809;28;20068;-44
2023/03/19 12:26:12;;;;;;;12.50;8.13;;;14.30;99.90;;;;;;4951699;28;20520;-47
2023/03/19 12:28:58;;;;;;;14.43;8.20;;;14.40;99.90;;;;;;4930634;28;20044;-45
2023/03/19 12:31:42;;;;;;;14.25;8.30;;;14.40;99.90;;;;;;4943603;28;20071;-42
2023/03/19 12:34:43;;;;;;;13.75;7.90;;;14.20;99.90;;;;;;4952044;28;20485;-46
2023/03/19 12:37:36;;;;;;;10.88;6.93;;;14.00;99.90;;;;;;4933804;28;20043;-44
2023/03/19 12:40:25;;;;;;;12.30;6.97;;;13.80;99.90;;;;;;4950995;28;20059;-44
2023/03/19 12:42:54;;;;;;;10.05;6.43;;;13.70;99.90;;;;;;4947952;28;20055;-45
2023/03/19 12:45:34;;;;;;;11.82;7.55;;;13.70;99.90;;;;;;4951466;28;20050;-43
2023/03/19 12:48:26;;;;;;;13.30;6.88;;;13.80;99.90;;;;;;4950097;28;20158;-47
2023/03/19 12:50:56;;;;;;;13.15;6.30;;;13.80;99.90;;;;;;4948359;28;20139;-47
2023/03/19 12:53:29;;;;;;;12.18;6.70;;;13.80;99.90;;;;;;4951029;28;20059;-44
2023/03/19 12:56:01;;;;;;;15.88;8.25;;;14.00;99.90;;;;;;4949609;28;20044;-42
2023/03/19 12:58:35;;;;;;;13.47;7.07;;;14.10;99.90;;;;;;4952521;28;20466;-44
2023/03/19 13:01:07;;;;;;;11.98;7.35;;;14.40;99.90;;;;;;4949951;28;20508;-40